sensor_id;sensor_type;location;lat;lon;timestamp;pressure;altitude;pressure_sealevel;temperature;humidity
17311;BME280;8773;43.300;0.394;2022-09-12T00:01:14;98851.06;;;21.84;100.00
17311;BME280;8773;43.300;0.394;2022-09-12T00:03:43;98850.09;;;21.88;100.00
17311;BME280;8773;43.300;0.394;2022-09-12T00:06:15;98844.84;;;21.86;100.00
17311;BME280;8773;43.300;0.394;2022-09-12T00:08:48;98850.19;;;21.82;100.00
17311;BME280;8773;43.300;0.394;2022-09-12T00:11:17;98851.38;;;21.65;100.00
17311;BME280;8773;43.300;0.394;2022-09-12T00:13:45;98837.31;;;21.62;100.00
17311;BME280;8773;43.300;0.394;2022-09-12T00:16:16;98840.09;;;21.54;100.00
17311;BME280;8773;43.300;0.394;2022-09-12T00:18:44;98843.72;;;21.48;100.00
17311;BME280;8773;43.300;0.394;2022-09-12T00:21:13;98837.59;;;21.46;100.00
17311;BME280;8773;43.300;0.394;2022-09-12T00:23:41;98830.56;;;21.44;100.00
17311;BME280;8773;43.300;0.394;2022-09-12T00:26:10;98827.84;;;21.47;100.00
17311;BME280;8773;43.300;0.394;2022-09-12T00:28:40;98822.03;;;21.25;100.00
17311;BME280;8773;43.300;0.394;2022-09-12T00:31:10;98823.91;;;21.20;100.00
17311;BME280;8773;43.300;0.394;2022-09-12T00:33:40;98815.00;;;21.24;100.00
17311;BME280;8773;43.300;0.394;2022-09-12T00:36:10;98816.53;;;21.36;100.00
17311;BME280;8773;43.300;0.394;2022-09-12T00:38:40;98809.56;;;21.30;100.00
17311;BME280;8773;43.300;0.394;2022-09-12T00:41:13;98805.19;;;21.29;100.00
17311;BME280;8773;43.300;0.394;2022-09-12T00:43:43;98802.81;;;21.11;100.00
17311;BME280;8773;43.300;0.394;2022-09-12T00:46:18;98798.44;;;21.08;100.00
17311;BME280;8773;43.300;0.394;2022-09-12T00:48:54;98797.53;;;21.09;100.00
17311;BME280;8773;43.300;0.394;2022-09-12T00:51:26;98796.75;;;21.04;100.00
17311;BME280;8773;43.300;0.394;2022-09-12T00:53:57;98797.69;;;21.00;100.00
17311;BME280;8773;43.300;0.394;2022-09-12T00:56:28;98790.53;;;21.05;100.00
17311;BME280;8773;43.300;0.394;2022-09-12T00:59:00;98787.81;;;21.08;100.00
17311;BME280;8773;43.300;0.394;2022-09-12T01:01:30;98789.94;;;20.86;100.00
17311;BME280;8773;43.300;0.394;2022-09-12T01:04:01;98794.50;;;20.79;100.00
17311;BME280;8773;43.300;0.394;2022-09-12T01:06:33;98790.59;;;21.00;100.00
17311;BME280;8773;43.300;0.394;2022-09-12T01:09:03;98791.31;;;21.12;100.00
17311;BME280;8773;43.300;0.394;2022-09-12T01:11:31;98785.34;;;20.97;100.00
17311;BME280;8773;43.300;0.394;2022-09-12T01:14:01;98786.56;;;20.78;100.00
17311;BME280;8773;43.300;0.394;2022-09-12T01:16:29;98783.09;;;20.74;100.00
17311;BME280;8773;43.300;0.394;2022-09-12T01:19:11;98791.59;;;20.95;100.00
17311;BME280;8773;43.300;0.394;2022-09-12T01:21:52;98789.88;;;20.91;100.00
17311;BME280;8773;43.300;0.394;2022-09-12T01:24:52;98779.72;;;20.64;100.00
17311;BME280;8773;43.300;0.394;2022-09-12T01:27:39;98782.09;;;20.81;100.00
17311;BME280;8773;43.300;0.394;2022-09-12T01:30:44;98785.53;;;20.86;100.00
17311;BME280;8773;43.300;0.394;2022-09-12T01:36:32;98788.34;;;20.77;100.00
17311;BME280;8773;43.300;0.394;2022-09-12T01:39:04;98781.19;;;20.82;100.00
17311;BME280;8773;43.300;0.394;2022-09-12T01:41:41;98779.19;;;20.97;100.00
17311;BME280;8773;43.300;0.394;2022-09-12T01:44:24;98787.22;;;20.91;100.00
17311;BME280;8773;43.300;0.394;2022-09-12T01:47:01;98787.88;;;21.05;100.00
17311;BME280;8773;43.300;0.394;2022-09-12T01:49:38;98783.88;;;20.79;100.00
17311;BME280;8773;43.300;0.394;2022-09-12T01:52:12;98781.06;;;20.88;100.00
17311;BME280;8773;43.300;0.394;2022-09-12T01:54:45;98781.38;;;20.70;100.00
17311;BME280;8773;43.300;0.394;2022-09-12T01:57:21;98781.97;;;20.89;100.00
17311;BME280;8773;43.300;0.394;2022-09-12T01:59:54;98778.53;;;20.81;100.00
17311;BME280;8773;43.300;0.394;2022-09-12T02:02:28;98766.41;;;20.66;100.00
17311;BME280;8773;43.300;0.394;2022-09-12T02:05:01;98762.91;;;20.65;100.00
17311;BME280;8773;43.300;0.394;2022-09-12T02:07:35;98755.06;;;20.58;100.00
17311;BME280;8773;43.300;0.394;2022-09-12T02:10:08;98758.63;;;20.57;100.00
17311;BME280;8773;43.300;0.394;2022-09-12T02:12:41;98763.56;;;20.78;100.00
17311;BME280;8773;43.300;0.394;2022-09-12T02:15:14;98759.06;;;20.83;100.00
17311;BME280;8773;43.300;0.394;2022-09-12T02:17:48;98752.94;;;20.81;100.00
17311;BME280;8773;43.300;0.394;2022-09-12T02:20:19;98752.91;;;20.83;100.00
17311;BME280;8773;43.300;0.394;2022-09-12T02:23:12;98754.94;;;20.65;100.00
17311;BME280;8773;43.300;0.394;2022-09-12T02:25:44;98746.94;;;20.69;100.00
17311;BME280;8773;43.300;0.394;2022-09-12T02:28:17;98740.63;;;20.79;100.00
17311;BME280;8773;43.300;0.394;2022-09-12T02:30:53;98744.81;;;20.92;100.00
17311;BME280;8773;43.300;0.394;2022-09-12T02:33:26;98741.16;;;20.99;100.00
17311;BME280;8773;43.300;0.394;2022-09-12T02:36:02;98728.75;;;21.00;100.00
17311;BME280;8773;43.300;0.394;2022-09-12T02:38:36;98726.88;;;21.06;100.00
17311;BME280;8773;43.300;0.394;2022-09-12T02:41:04;98736.59;;;21.06;100.00
17311;BME280;8773;43.300;0.394;2022-09-12T02:43:33;98739.66;;;20.83;100.00
17311;BME280;8773;43.300;0.394;2022-09-12T02:46:04;98739.84;;;20.71;100.00
17311;BME280;8773;43.300;0.394;2022-09-12T02:48:38;98719.94;;;20.47;100.00
17311;BME280;8773;43.300;0.394;2022-09-12T02:51:08;98718.66;;;20.71;100.00
17311;BME280;8773;43.300;0.394;2022-09-12T02:53:37;98708.69;;;20.85;100.00
17311;BME280;8773;43.300;0.394;2022-09-12T02:56:07;98704.19;;;20.90;100.00
17311;BME280;8773;43.300;0.394;2022-09-12T02:58:37;98707.75;;;20.89;100.00
17311;BME280;8773;43.300;0.394;2022-09-12T03:01:13;98712.41;;;20.75;100.00
17311;BME280;8773;43.300;0.394;2022-09-12T03:04:07;98707.25;;;20.65;100.00
17311;BME280;8773;43.300;0.394;2022-09-12T03:06:49;98707.19;;;20.70;100.00
17311;BME280;8773;43.300;0.394;2022-09-12T03:09:31;98706.41;;;20.63;100.00
17311;BME280;8773;43.300;0.394;2022-09-12T03:12:15;98704.47;;;20.75;100.00
17311;BME280;8773;43.300;0.394;2022-09-12T03:17:53;98697.25;;;20.83;100.00
17311;BME280;8773;43.300;0.394;2022-09-12T03:20:34;98703.53;;;20.76;100.00
17311;BME280;8773;43.300;0.394;2022-09-12T03:23:13;98709.88;;;20.67;100.00
17311;BME280;8773;43.300;0.394;2022-09-12T03:25:46;98709.97;;;20.62;100.00
17311;BME280;8773;43.300;0.394;2022-09-12T03:28:16;98706.72;;;20.45;100.00
17311;BME280;8773;43.300;0.394;2022-09-12T03:30:47;98692.06;;;20.19;100.00
17311;BME280;8773;43.300;0.394;2022-09-12T03:33:18;98698.16;;;20.25;100.00
17311;BME280;8773;43.300;0.394;2022-09-12T03:35:48;98698.91;;;20.33;100.00
17311;BME280;8773;43.300;0.394;2022-09-12T03:38:17;98703.41;;;20.29;100.00
17311;BME280;8773;43.300;0.394;2022-09-12T03:40:45;98696.25;;;20.34;100.00
17311;BME280;8773;43.300;0.394;2022-09-12T03:43:20;98695.31;;;20.41;100.00
17311;BME280;8773;43.300;0.394;2022-09-12T03:45:49;98697.03;;;20.44;100.00
17311;BME280;8773;43.300;0.394;2022-09-12T03:48:17;98699.16;;;20.19;100.00
17311;BME280;8773;43.300;0.394;2022-09-12T03:50:45;98684.88;;;20.26;100.00
17311;BME280;8773;43.300;0.394;2022-09-12T03:53:15;98693.47;;;20.45;100.00
17311;BME280;8773;43.300;0.394;2022-09-12T03:55:43;98692.69;;;20.38;100.00
17311;BME280;8773;43.300;0.394;2022-09-12T03:58:13;98691.78;;;20.36;100.00
17311;BME280;8773;43.300;0.394;2022-09-12T04:00:41;98691.69;;;20.46;100.00
17311;BME280;8773;43.300;0.394;2022-09-12T04:03:09;98696.13;;;20.45;100.00
17311;BME280;8773;43.300;0.394;2022-09-12T04:05:37;98704.84;;;20.52;100.00
17311;BME280;8773;43.300;0.394;2022-09-12T04:08:06;98701.47;;;20.42;100.00
17311;BME280;8773;43.300;0.394;2022-09-12T04:10:35;98700.13;;;20.10;100.00
17311;BME280;8773;43.300;0.394;2022-09-12T04:13:03;98699.50;;;19.94;100.00
17311;BME280;8773;43.300;0.394;2022-09-12T04:15:31;98696.09;;;19.83;100.00
17311;BME280;8773;43.300;0.394;2022-09-12T04:17:59;98701.16;;;20.01;100.00
17311;BME280;8773;43.300;0.394;2022-09-12T04:20:31;98711.41;;;20.23;100.00
17311;BME280;8773;43.300;0.394;2022-09-12T04:23:00;98698.09;;;20.29;100.00
17311;BME280;8773;43.300;0.394;2022-09-12T04:25:28;98698.09;;;20.29;100.00
17311;BME280;8773;43.300;0.394;2022-09-12T04:27:58;98700.91;;;20.18;100.00
17311;BME280;8773;43.300;0.394;2022-09-12T04:30:28;98695.47;;;20.29;100.00
17311;BME280;8773;43.300;0.394;2022-09-12T04:32:56;98701.69;;;20.25;100.00
17311;BME280;8773;43.300;0.394;2022-09-12T04:35:25;98695.47;;;20.28;100.00
17311;BME280;8773;43.300;0.394;2022-09-12T04:37:53;98700.69;;;20.32;100.00
17311;BME280;8773;43.300;0.394;2022-09-12T04:40:21;98703.25;;;20.41;100.00
17311;BME280;8773;43.300;0.394;2022-09-12T04:42:49;98709.28;;;20.50;100.00
17311;BME280;8773;43.300;0.394;2022-09-12T04:45:18;98702.16;;;20.55;100.00
17311;BME280;8773;43.300;0.394;2022-09-12T04:47:46;98710.91;;;20.58;100.00
17311;BME280;8773;43.300;0.394;2022-09-12T04:50:14;98706.53;;;20.56;100.00
17311;BME280;8773;43.300;0.394;2022-09-12T04:52:42;98714.53;;;20.53;100.00
17311;BME280;8773;43.300;0.394;2022-09-12T04:55:10;98717.13;;;20.56;100.00
17311;BME280;8773;43.300;0.394;2022-09-12T04:57:38;98729.50;;;20.54;100.00
17311;BME280;8773;43.300;0.394;2022-09-12T05:00:08;98731.34;;;20.50;100.00
17311;BME280;8773;43.300;0.394;2022-09-12T05:02:40;98739.28;;;20.52;100.00
17311;BME280;8773;43.300;0.394;2022-09-12T05:05:09;98740.28;;;20.44;100.00
17311;BME280;8773;43.300;0.394;2022-09-12T05:07:38;98749.22;;;20.37;100.00
17311;BME280;8773;43.300;0.394;2022-09-12T05:10:07;98752.13;;;20.16;100.00
17311;BME280;8773;43.300;0.394;2022-09-12T05:12:35;98751.19;;;20.18;100.00
17311;BME280;8773;43.300;0.394;2022-09-12T05:15:04;98769.66;;;20.25;100.00
17311;BME280;8773;43.300;0.394;2022-09-12T05:17:32;98768.72;;;20.29;100.00
17311;BME280;8773;43.300;0.394;2022-09-12T05:20:02;98775.66;;;20.36;100.00
17311;BME280;8773;43.300;0.394;2022-09-12T05:22:30;98767.78;;;20.33;100.00
17311;BME280;8773;43.300;0.394;2022-09-12T05:24:58;98769.13;;;19.98;100.00
17311;BME280;8773;43.300;0.394;2022-09-12T05:27:26;98767.25;;;20.09;100.00
17311;BME280;8773;43.300;0.394;2022-09-12T05:29:53;98768.84;;;20.19;100.00
17311;BME280;8773;43.300;0.394;2022-09-12T05:32:21;98774.09;;;20.22;100.00
17311;BME280;8773;43.300;0.394;2022-09-12T05:34:49;98768.00;;;20.19;100.00
17311;BME280;8773;43.300;0.394;2022-09-12T05:37:19;98776.75;;;20.21;100.00
17311;BME280;8773;43.300;0.394;2022-09-12T05:39:47;98778.47;;;20.27;100.00
17311;BME280;8773;43.300;0.394;2022-09-12T05:42:15;98770.63;;;20.19;100.00
17311;BME280;8773;43.300;0.394;2022-09-12T05:44:43;98756.81;;;19.94;100.00
17311;BME280;8773;43.300;0.394;2022-09-12T05:47:12;98764.59;;;20.08;100.00
17311;BME280;8773;43.300;0.394;2022-09-12T05:49:41;98765.34;;;20.19;100.00
17311;BME280;8773;43.300;0.394;2022-09-12T05:52:10;98774.00;;;20.29;100.00
17311;BME280;8773;43.300;0.394;2022-09-12T05:54:40;98774.16;;;20.16;100.00
17311;BME280;8773;43.300;0.394;2022-09-12T05:57:08;98767.78;;;19.65;100.00
17311;BME280;8773;43.300;0.394;2022-09-12T05:59:36;98764.03;;;19.81;100.00
17311;BME280;8773;43.300;0.394;2022-09-12T06:02:04;98760.31;;;19.99;100.00
17311;BME280;8773;43.300;0.394;2022-09-12T06:04:32;98759.34;;;20.03;100.00
17311;BME280;8773;43.300;0.394;2022-09-12T06:07:01;98775.94;;;20.17;100.00
17311;BME280;8773;43.300;0.394;2022-09-12T06:09:30;98788.94;;;20.37;100.00
17311;BME280;8773;43.300;0.394;2022-09-12T06:11:59;98780.09;;;20.35;100.00
17311;BME280;8773;43.300;0.394;2022-09-12T06:14:27;98782.19;;;20.12;100.00
17311;BME280;8773;43.300;0.394;2022-09-12T06:16:55;98791.56;;;20.36;100.00
17311;BME280;8773;43.300;0.394;2022-09-12T06:19:23;98791.13;;;20.68;100.00
17311;BME280;8773;43.300;0.394;2022-09-12T06:21:53;98792.78;;;20.77;100.00
17311;BME280;8773;43.300;0.394;2022-09-12T06:24:22;98784.22;;;20.58;100.00
17311;BME280;8773;43.300;0.394;2022-09-12T06:26:50;98789.16;;;20.81;100.00
17311;BME280;8773;43.300;0.394;2022-09-12T06:29:20;98791.16;;;21.21;100.00
17311;BME280;8773;43.300;0.394;2022-09-12T06:31:48;98789.16;;;21.35;100.00
17311;BME280;8773;43.300;0.394;2022-09-12T06:34:16;98786.59;;;21.76;100.00
17311;BME280;8773;43.300;0.394;2022-09-12T06:36:46;98795.66;;;22.10;100.00
17311;BME280;8773;43.300;0.394;2022-09-12T06:39:15;98794.72;;;22.13;100.00
17311;BME280;8773;43.300;0.394;2022-09-12T06:41:44;98804.72;;;22.41;100.00
17311;BME280;8773;43.300;0.394;2022-09-12T06:44:14;98805.47;;;22.47;100.00
17311;BME280;8773;43.300;0.394;2022-09-12T06:46:45;98801.78;;;22.54;100.00
17311;BME280;8773;43.300;0.394;2022-09-12T06:49:13;98812.47;;;22.90;100.00
17311;BME280;8773;43.300;0.394;2022-09-12T06:51:41;98811.03;;;22.77;100.00
17311;BME280;8773;43.300;0.394;2022-09-12T06:54:11;98804.63;;;23.21;100.00
17311;BME280;8773;43.300;0.394;2022-09-12T06:56:40;98800.50;;;23.77;100.00
17311;BME280;8773;43.300;0.394;2022-09-12T06:59:08;98794.06;;;24.45;100.00
17311;BME280;8773;43.300;0.394;2022-09-12T07:01:36;98789.22;;;25.14;100.00
17311;BME280;8773;43.300;0.394;2022-09-12T07:04:07;98787.13;;;25.74;100.00
17311;BME280;8773;43.300;0.394;2022-09-12T07:06:37;98796.47;;;26.34;100.00
17311;BME280;8773;43.300;0.394;2022-09-12T07:09:07;98804.13;;;26.67;100.00
17311;BME280;8773;43.300;0.394;2022-09-12T07:11:37;98799.84;;;27.07;100.00
17311;BME280;8773;43.300;0.394;2022-09-12T07:14:07;98803.78;;;27.41;99.74
17311;BME280;8773;43.300;0.394;2022-09-12T07:16:36;98803.81;;;27.60;100.00
17311;BME280;8773;43.300;0.394;2022-09-12T07:19:07;98800.28;;;27.80;98.83
17311;BME280;8773;43.300;0.394;2022-09-12T07:21:35;98800.16;;;27.83;95.55
17311;BME280;8773;43.300;0.394;2022-09-12T07:24:06;98803.66;;;27.64;94.24
17311;BME280;8773;43.300;0.394;2022-09-12T07:26:35;98794.56;;;27.05;96.99
17311;BME280;8773;43.300;0.394;2022-09-12T07:29:03;98784.66;;;26.85;100.00
17311;BME280;8773;43.300;0.394;2022-09-12T07:31:52;98787.13;;;27.12;100.00
17311;BME280;8773;43.300;0.394;2022-09-12T07:34:22;98785.94;;;27.40;99.15
17311;BME280;8773;43.300;0.394;2022-09-12T07:36:49;98781.22;;;27.67;97.65
17311;BME280;8773;43.300;0.394;2022-09-12T07:39:18;98792.94;;;28.24;93.61
17311;BME280;8773;43.300;0.394;2022-09-12T07:41:46;98798.16;;;28.65;90.26
17311;BME280;8773;43.300;0.394;2022-09-12T07:44:14;98798.88;;;28.31;90.69
17311;BME280;8773;43.300;0.394;2022-09-12T07:46:42;98797.94;;;27.92;93.48
17311;BME280;8773;43.300;0.394;2022-09-12T07:49:11;98786.22;;;27.54;95.62
17311;BME280;8773;43.300;0.394;2022-09-12T07:51:40;98785.09;;;26.75;100.00
17311;BME280;8773;43.300;0.394;2022-09-12T07:54:09;98786.44;;;26.63;100.00
17311;BME280;8773;43.300;0.394;2022-09-12T07:56:37;98785.06;;;26.53;100.00
17311;BME280;8773;43.300;0.394;2022-09-12T07:59:06;98791.16;;;26.33;100.00
17311;BME280;8773;43.300;0.394;2022-09-12T08:01:34;98786.81;;;25.83;100.00
17311;BME280;8773;43.300;0.394;2022-09-12T08:04:02;98786.78;;;26.08;100.00
17311;BME280;8773;43.300;0.394;2022-09-12T08:06:32;98784.50;;;26.21;100.00
17311;BME280;8773;43.300;0.394;2022-09-12T08:09:04;98778.69;;;26.33;100.00
17311;BME280;8773;43.300;0.394;2022-09-12T08:11:33;98778.25;;;26.46;100.00
17311;BME280;8773;43.300;0.394;2022-09-12T08:14:02;98779.41;;;27.04;100.00
17311;BME280;8773;43.300;0.394;2022-09-12T08:16:32;98781.41;;;27.42;100.00
17311;BME280;8773;43.300;0.394;2022-09-12T08:19:01;98790.69;;;27.76;97.44
17311;BME280;8773;43.300;0.394;2022-09-12T08:21:31;98794.91;;;28.00;95.95
17311;BME280;8773;43.300;0.394;2022-09-12T08:24:04;98785.50;;;28.10;96.17
17311;BME280;8773;43.300;0.394;2022-09-12T08:26:33;98797.09;;;27.71;95.77
17311;BME280;8773;43.300;0.394;2022-09-12T08:29:01;98791.88;;;28.08;96.00
17311;BME280;8773;43.300;0.394;2022-09-12T08:31:30;98788.84;;;28.16;94.84
17311;BME280;8773;43.300;0.394;2022-09-12T08:34:02;98787.09;;;28.14;92.95
17311;BME280;8773;43.300;0.394;2022-09-12T08:36:31;98789.47;;;28.02;97.28
17311;BME280;8773;43.300;0.394;2022-09-12T08:39:01;98787.03;;;28.16;95.48
17311;BME280;8773;43.300;0.394;2022-09-12T08:41:34;98792.53;;;28.13;92.84
17311;BME280;8773;43.300;0.394;2022-09-12T08:44:21;98804.16;;;28.51;93.21
17311;BME280;8773;43.300;0.394;2022-09-12T08:49:47;98809.16;;;28.78;90.79
17311;BME280;8773;43.300;0.394;2022-09-12T08:52:22;98811.25;;;28.71;88.46
17311;BME280;8773;43.300;0.394;2022-09-12T08:54:53;98820.41;;;28.86;88.99
17311;BME280;8773;43.300;0.394;2022-09-12T08:57:23;98816.16;;;28.99;89.15
17311;BME280;8773;43.300;0.394;2022-09-12T08:59:52;98828.19;;;29.27;87.88
17311;BME280;8773;43.300;0.394;2022-09-12T09:02:36;98826.63;;;29.23;89.20
17311;BME280;8773;43.300;0.394;2022-09-12T09:05:16;98838.53;;;29.54;86.14
17311;BME280;8773;43.300;0.394;2022-09-12T09:08:07;98830.13;;;29.60;85.12
17311;BME280;8773;43.300;0.394;2022-09-12T09:10:46;98830.47;;;29.71;88.43
17311;BME280;8773;43.300;0.394;2022-09-12T09:13:31;98833.16;;;29.89;86.66
17311;BME280;8773;43.300;0.394;2022-09-12T09:16:24;98838.88;;;30.16;85.79
17311;BME280;8773;43.300;0.394;2022-09-12T09:18:57;98832.41;;;30.02;85.91
17311;BME280;8773;43.300;0.394;2022-09-12T09:21:30;98842.19;;;30.37;85.33
17311;BME280;8773;43.300;0.394;2022-09-12T09:24:03;98845.94;;;30.34;85.10
17311;BME280;8773;43.300;0.394;2022-09-12T09:26:40;98826.00;;;30.38;83.02
17311;BME280;8773;43.300;0.394;2022-09-12T09:29:14;98830.00;;;30.47;83.46
17311;BME280;8773;43.300;0.394;2022-09-12T09:31:46;98833.09;;;30.73;83.03
17311;BME280;8773;43.300;0.394;2022-09-12T09:34:18;98831.41;;;30.86;79.72
17311;BME280;8773;43.300;0.394;2022-09-12T09:36:51;98835.22;;;31.13;79.78
17311;BME280;8773;43.300;0.394;2022-09-12T09:39:34;98839.13;;;31.24;78.53
17311;BME280;8773;43.300;0.394;2022-09-12T09:42:12;98842.06;;;31.35;78.70
17311;BME280;8773;43.300;0.394;2022-09-12T09:44:46;98839.25;;;31.37;79.48
17311;BME280;8773;43.300;0.394;2022-09-12T09:47:16;98837.56;;;31.20;76.93
17311;BME280;8773;43.300;0.394;2022-09-12T09:49:45;98842.28;;;31.46;77.03
17311;BME280;8773;43.300;0.394;2022-09-12T09:52:15;98843.81;;;31.66;76.17
17311;BME280;8773;43.300;0.394;2022-09-12T09:54:46;98853.34;;;31.72;70.58
17311;BME280;8773;43.300;0.394;2022-09-12T09:57:39;98855.28;;;32.00;69.77
17311;BME280;8773;43.300;0.394;2022-09-12T10:00:29;98846.81;;;32.21;69.41
17311;BME280;8773;43.300;0.394;2022-09-12T10:03:00;98850.53;;;32.47;59.98
17311;BME280;8773;43.300;0.394;2022-09-12T10:05:32;98853.81;;;32.66;62.27
17311;BME280;8773;43.300;0.394;2022-09-12T10:08:02;98840.59;;;32.76;59.33
17311;BME280;8773;43.300;0.394;2022-09-12T10:10:33;98842.19;;;32.93;56.54
17311;BME280;8773;43.300;0.394;2022-09-12T10:13:15;98845.19;;;32.88;54.04
17311;BME280;8773;43.300;0.394;2022-09-12T10:15:59;98835.25;;;32.89;54.17
17311;BME280;8773;43.300;0.394;2022-09-12T10:18:39;98847.22;;;32.84;53.82
17311;BME280;8773;43.300;0.394;2022-09-12T10:21:18;98839.88;;;32.87;52.97
17311;BME280;8773;43.300;0.394;2022-09-12T10:23:51;98844.69;;;32.96;53.31
17311;BME280;8773;43.300;0.394;2022-09-12T10:26:20;98836.56;;;33.10;52.07
17311;BME280;8773;43.300;0.394;2022-09-12T10:28:50;98832.22;;;33.35;52.48
17311;BME280;8773;43.300;0.394;2022-09-12T10:31:26;98839.44;;;33.61;50.60
17311;BME280;8773;43.300;0.394;2022-09-12T10:33:57;98830.47;;;33.74;49.26
17311;BME280;8773;43.300;0.394;2022-09-12T10:36:35;98831.31;;;33.87;46.89
17311;BME280;8773;43.300;0.394;2022-09-12T10:39:04;98833.09;;;34.01;46.12
17311;BME280;8773;43.300;0.394;2022-09-12T10:41:36;98830.69;;;34.22;46.66
17311;BME280;8773;43.300;0.394;2022-09-12T10:44:06;98831.56;;;34.48;47.17
17311;BME280;8773;43.300;0.394;2022-09-12T10:46:36;98835.81;;;34.52;45.06
17311;BME280;8773;43.300;0.394;2022-09-12T10:49:23;98836.13;;;34.47;43.68
17311;BME280;8773;43.300;0.394;2022-09-12T10:51:53;98837.16;;;34.70;42.41
17311;BME280;8773;43.300;0.394;2022-09-12T10:54:24;98836.06;;;34.73;41.79
17311;BME280;8773;43.300;0.394;2022-09-12T10:57:22;98846.47;;;34.66;40.65
17311;BME280;8773;43.300;0.394;2022-09-12T11:00:08;98826.94;;;34.74;40.64
17311;BME280;8773;43.300;0.394;2022-09-12T11:03:08;98825.38;;;34.95;39.83
17311;BME280;8773;43.300;0.394;2022-09-12T11:05:52;98825.25;;;35.21;39.93
17311;BME280;8773;43.300;0.394;2022-09-12T11:08:45;98820.50;;;35.25;39.20
17311;BME280;8773;43.300;0.394;2022-09-12T11:11:33;98826.41;;;35.30;38.47
17311;BME280;8773;43.300;0.394;2022-09-12T11:14:31;98819.38;;;35.27;36.88
17311;BME280;8773;43.300;0.394;2022-09-12T11:17:11;98822.72;;;35.07;36.37
17311;BME280;8773;43.300;0.394;2022-09-12T11:19:54;98805.44;;;34.96;36.59
17311;BME280;8773;43.300;0.394;2022-09-12T11:22:36;98804.34;;;34.86;37.24
17311;BME280;8773;43.300;0.394;2022-09-12T11:25:22;98806.41;;;35.20;37.65
17311;BME280;8773;43.300;0.394;2022-09-12T11:28:18;98795.03;;;35.38;36.77
17311;BME280;8773;43.300;0.394;2022-09-12T11:31:01;98803.47;;;35.58;36.88
17311;BME280;8773;43.300;0.394;2022-09-12T11:33:40;98801.03;;;35.07;36.18
17311;BME280;8773;43.300;0.394;2022-09-12T11:36:19;98796.94;;;34.77;36.50
17311;BME280;8773;43.300;0.394;2022-09-12T11:38:58;98785.97;;;35.27;37.42
17311;BME280;8773;43.300;0.394;2022-09-12T11:41:31;98776.06;;;35.38;36.76
17311;BME280;8773;43.300;0.394;2022-09-12T11:44:08;98766.25;;;35.25;36.54
17311;BME280;8773;43.300;0.394;2022-09-12T11:46:38;98762.53;;;35.50;36.57
17311;BME280;8773;43.300;0.394;2022-09-12T11:49:16;98755.03;;;35.76;35.62
17311;BME280;8773;43.300;0.394;2022-09-12T11:51:51;98753.00;;;35.91;35.94
17311;BME280;8773;43.300;0.394;2022-09-12T11:54:25;98753.63;;;35.94;35.97
17311;BME280;8773;43.300;0.394;2022-09-12T11:57:12;98741.53;;;36.10;35.32
17311;BME280;8773;43.300;0.394;2022-09-12T11:59:46;98729.41;;;36.48;36.53
17311;BME280;8773;43.300;0.394;2022-09-12T12:02:23;98725.75;;;36.70;35.17
17311;BME280;8773;43.300;0.394;2022-09-12T12:05:01;98715.13;;;36.66;34.23
17311;BME280;8773;43.300;0.394;2022-09-12T12:07:40;98718.50;;;37.02;35.32
17311;BME280;8773;43.300;0.394;2022-09-12T12:10:22;98712.69;;;36.75;34.88
17311;BME280;8773;43.300;0.394;2022-09-12T12:12:53;98721.78;;;36.85;34.75
17311;BME280;8773;43.300;0.394;2022-09-12T12:15:23;98713.31;;;36.99;33.93
17311;BME280;8773;43.300;0.394;2022-09-12T12:18:00;98704.56;;;36.96;33.57
17311;BME280;8773;43.300;0.394;2022-09-12T12:20:29;98707.69;;;37.12;34.57
17311;BME280;8773;43.300;0.394;2022-09-12T12:22:59;98699.72;;;36.99;34.16
17311;BME280;8773;43.300;0.394;2022-09-12T12:25:39;98707.00;;;36.99;34.37
17311;BME280;8773;43.300;0.394;2022-09-12T12:28:10;98713.91;;;36.82;33.38
17311;BME280;8773;43.300;0.394;2022-09-12T12:31:00;98712.66;;;36.63;32.90
17311;BME280;8773;43.300;0.394;2022-09-12T12:33:57;98716.66;;;36.59;33.91
17311;BME280;8773;43.300;0.394;2022-09-12T12:36:30;98723.59;;;36.41;34.53
17311;BME280;8773;43.300;0.394;2022-09-12T12:45:48;98712.75;;;36.41;34.40
17311;BME280;8773;43.300;0.394;2022-09-12T12:51:39;98713.47;;;36.54;35.13
17311;BME280;8773;43.300;0.394;2022-09-12T12:54:51;98702.84;;;36.51;34.78
17311;BME280;8773;43.300;0.394;2022-09-12T12:57:44;98689.94;;;36.76;35.13
17311;BME280;8773;43.300;0.394;2022-09-12T13:00:30;98695.59;;;36.73;34.88
17311;BME280;8773;43.300;0.394;2022-09-12T13:03:04;98683.91;;;36.61;34.28
17311;BME280;8773;43.300;0.394;2022-09-12T13:05:41;98687.63;;;36.60;35.30
17311;BME280;8773;43.300;0.394;2022-09-12T13:08:26;98683.13;;;36.70;34.74
17311;BME280;8773;43.300;0.394;2022-09-12T13:10:59;98681.00;;;36.74;34.87
17311;BME280;8773;43.300;0.394;2022-09-12T13:13:31;98671.72;;;36.87;35.65
17311;BME280;8773;43.300;0.394;2022-09-12T13:16:01;98667.69;;;36.71;35.20
17311;BME280;8773;43.300;0.394;2022-09-12T13:18:40;98657.84;;;36.70;34.99
17311;BME280;8773;43.300;0.394;2022-09-12T13:21:12;98656.00;;;36.91;34.68
17311;BME280;8773;43.300;0.394;2022-09-12T13:23:42;98658.88;;;37.11;34.69
17311;BME280;8773;43.300;0.394;2022-09-12T13:26:12;98670.78;;;36.77;34.33
17311;BME280;8773;43.300;0.394;2022-09-12T13:28:45;98672.59;;;36.88;34.73
17311;BME280;8773;43.300;0.394;2022-09-12T13:31:22;98671.66;;;36.66;34.59
17311;BME280;8773;43.300;0.394;2022-09-12T13:33:52;98666.09;;;36.79;34.53
17311;BME280;8773;43.300;0.394;2022-09-12T13:36:43;98665.75;;;36.94;34.99
17311;BME280;8773;43.300;0.394;2022-09-12T13:39:18;98648.53;;;36.83;34.42
17311;BME280;8773;43.300;0.394;2022-09-12T13:44:43;98644.22;;;36.81;34.61
17311;BME280;8773;43.300;0.394;2022-09-12T13:47:13;98644.34;;;36.79;34.44
17311;BME280;8773;43.300;0.394;2022-09-12T13:49:44;98642.81;;;36.86;35.06
17311;BME280;8773;43.300;0.394;2022-09-12T13:52:16;98642.66;;;36.99;35.73
17311;BME280;8773;43.300;0.394;2022-09-12T13:54:47;98642.66;;;36.99;35.35
17311;BME280;8773;43.300;0.394;2022-09-12T13:57:31;98642.50;;;36.80;35.57
17311;BME280;8773;43.300;0.394;2022-09-12T14:00:04;98639.19;;;36.97;36.16